Time;durP1;ratioP1;P1;durP2;ratioP2;P2;SDS_P1;SDS_P2;PMS_P1;PMS_P2;Temp;Humidity;BMP_temperature;BMP_pressure;BME280_temperature;BME280_humidity;BME280_pressure;Samples;Min_cycle;Max_cycle;Signal;HPM_P1;HPM_P2
2022/04/24 00:02:14;;;;;;;1.77;1.30;;;12.90;94.10;;;;;;4986836;28;20490;-71
2022/04/24 00:04:42;;;;;;;2.10;1.10;;;12.80;94.20;;;;;;4983134;28;20237;-71
2022/04/24 00:07:09;;;;;;;3.00;1.30;;;12.80;94.50;;;;;;4988676;28;20213;-71
2022/04/24 00:09:37;;;;;;;2.77;2.43;;;12.80;94.60;;;;;;4985775;28;20229;-71
2022/04/24 00:12:06;;;;;;;1.10;1.00;;;12.70;94.70;;;;;;4981576;28;20270;-71
2022/04/24 00:14:33;;;;;;;1.47;1.37;;;12.70;94.80;;;;;;4983006;28;20215;-71
2022/04/24 00:17:01;;;;;;;0.90;0.90;;;12.70;94.80;;;;;;4967316;28;20216;-69
2022/04/24 00:19:28;;;;;;;2.30;1.20;;;12.70;94.70;;;;;;4984689;28;20693;-69
2022/04/24 00:21:57;;;;;;;4.90;1.93;;;12.60;94.70;;;;;;4993418;28;20523;-69
2022/04/24 00:24:25;;;;;;;3.17;1.13;;;12.60;94.70;;;;;;4980369;28;20277;-69
2022/04/24 00:26:54;;;;;;;1.00;1.00;;;12.60;94.80;;;;;;4975088;28;20239;-69
2022/04/24 00:29:21;;;;;;;1.20;1.10;;;12.60;94.90;;;;;;4959936;28;20636;-69
2022/04/24 00:31:49;;;;;;;1.57;1.43;;;12.60;95.00;;;;;;4989108;28;20257;-69
2022/04/24 00:34:16;;;;;;;2.20;1.57;;;12.50;94.90;;;;;;4979797;28;20291;-68
2022/04/24 00:36:45;;;;;;;2.00;0.90;;;12.50;94.90;;;;;;4974056;28;20681;-68
2022/04/24 00:39:14;;;;;;;1.80;1.67;;;12.50;94.80;;;;;;4979052;28;20643;-70
2022/04/24 00:41:48;;;;;;;1.43;1.33;;;12.40;94.70;;;;;;4966966;28;20216;-70
2022/04/24 00:44:17;;;;;;;2.53;1.50;;;12.40;94.80;;;;;;4984030;28;20196;-69
2022/04/24 00:47:12;;;;;;;1.90;1.40;;;12.40;94.90;;;;;;4989431;28;20216;-69
2022/04/24 00:49:40;;;;;;;4.63;1.60;;;12.40;94.90;;;;;;4969269;28;20544;-69
2022/04/24 00:52:09;;;;;;;1.37;1.27;;;12.40;94.90;;;;;;4968422;28;20207;-69
2022/04/24 00:54:37;;;;;;;5.00;1.40;;;12.40;95.10;;;;;;4986058;28;20224;-69
2022/04/24 00:57:09;;;;;;;1.83;1.30;;;12.40;95.10;;;;;;4986340;28;20235;-69
2022/04/24 00:59:37;;;;;;;1.33;1.23;;;12.30;94.90;;;;;;4970516;28;20304;-70
2022/04/24 01:02:06;;;;;;;1.30;1.20;;;12.30;94.70;;;;;;4973489;28;20288;-69
2022/04/24 01:04:35;;;;;;;1.90;1.77;;;12.30;94.50;;;;;;4981624;28;20231;-69
2022/04/24 01:07:03;;;;;;;5.87;1.90;;;12.20;94.50;;;;;;4979415;28;20282;-69
2022/04/24 01:09:33;;;;;;;3.43;1.30;;;12.10;94.40;;;;;;4979063;28;20242;-69
2022/04/24 01:12:00;;;;;;;1.40;1.30;;;12.10;94.20;;;;;;4960641;28;20220;-69
2022/04/24 01:14:30;;;;;;;2.73;1.33;;;12.00;94.10;;;;;;4979903;28;20217;-69
2022/04/24 01:16:58;;;;;;;3.23;1.40;;;11.90;94.20;;;;;;4984260;28;20204;-69
2022/04/24 01:19:26;;;;;;;1.90;1.60;;;11.90;94.60;;;;;;4986049;28;20291;-69
2022/04/24 01:21:54;;;;;;;1.43;1.33;;;11.80;94.50;;;;;;4976201;28;20589;-69
2022/04/24 01:24:25;;;;;;;3.43;1.40;;;11.80;94.60;;;;;;4977051;28;20233;-70
2022/04/24 01:26:53;;;;;;;1.20;1.10;;;11.80;94.70;;;;;;4989284;28;20285;-69
2022/04/24 01:29:20;;;;;;;2.17;1.33;;;11.80;94.70;;;;;;4990144;28;20610;-69
2022/04/24 01:31:50;;;;;;;1.40;1.20;;;11.80;94.80;;;;;;4989408;28;20228;-69
2022/04/24 01:34:19;;;;;;;2.73;1.27;;;11.80;94.90;;;;;;4988336;28;20295;-69
2022/04/24 01:36:47;;;;;;;1.43;1.23;;;11.80;94.90;;;;;;4986282;28;20522;-69
2022/04/24 01:39:15;;;;;;;3.67;1.37;;;11.80;94.90;;;;;;4986870;28;20197;-69
2022/04/24 01:41:44;;;;;;;1.43;1.33;;;11.80;94.80;;;;;;4983988;28;20465;-69
2022/04/24 01:44:11;;;;;;;1.47;1.27;;;11.80;94.90;;;;;;4982512;28;20204;-70
2022/04/24 01:46:38;;;;;;;2.63;1.30;;;11.80;94.80;;;;;;4987097;28;20565;-69
2022/04/24 01:49:06;;;;;;;1.93;1.20;;;11.70;94.50;;;;;;4985216;28;20353;-69
2022/04/24 01:51:33;;;;;;;2.37;1.20;;;11.70;94.60;;;;;;4968807;28;20262;-70
2022/04/24 01:54:00;;;;;;;2.83;1.70;;;11.70;94.70;;;;;;4981146;28;20633;-69
2022/04/24 01:56:27;;;;;;;2.50;1.50;;;11.70;94.80;;;;;;4962408;28;20288;-69
2022/04/24 01:58:55;;;;;;;1.70;1.60;;;11.70;95.00;;;;;;4977695;28;20540;-69
2022/04/24 02:01:22;;;;;;;2.63;1.63;;;11.70;95.10;;;;;;4978158;28;20216;-70
2022/04/24 02:03:49;;;;;;;3.47;1.83;;;11.70;95.00;;;;;;4976737;28;20233;-70
2022/04/24 02:06:17;;;;;;;3.70;1.87;;;11.70;95.00;;;;;;4976208;28;20293;-70
2022/04/24 02:12:56;;;;;;;2.27;1.80;;;11.70;95.10;;;;;;4986111;28;20576;-69
2022/04/24 02:15:24;;;;;;;2.73;1.80;;;11.70;95.10;;;;;;4980654;28;20244;-69
2022/04/24 02:17:51;;;;;;;5.63;1.83;;;11.70;95.10;;;;;;4984952;28;20231;-69
2022/04/24 02:20:18;;;;;;;3.63;1.90;;;11.70;95.10;;;;;;4976702;28;20211;-70
2022/04/24 02:22:45;;;;;;;2.17;1.97;;;11.70;95.10;;;;;;4979396;28;20211;-70
2022/04/24 02:25:12;;;;;;;3.33;1.97;;;11.70;94.80;;;;;;4979000;28;20213;-70
2022/04/24 02:27:39;;;;;;;4.57;1.97;;;11.70;94.70;;;;;;4969581;28;20699;-70
2022/04/24 02:30:07;;;;;;;4.80;1.60;;;11.60;94.70;;;;;;4984130;28;20641;-69
2022/04/24 02:32:34;;;;;;;2.73;1.60;;;11.60;94.80;;;;;;4982528;28;20204;-69
2022/04/24 02:35:01;;;;;;;4.73;1.67;;;11.60;95.00;;;;;;4984823;28;20212;-69
2022/04/24 02:37:31;;;;;;;2.43;1.60;;;11.60;95.00;;;;;;4982205;28;20652;-69
2022/04/24 02:39:59;;;;;;;5.00;1.40;;;11.60;95.00;;;;;;4986433;28;20267;-69
2022/04/24 02:42:26;;;;;;;1.50;1.40;;;11.60;95.10;;;;;;4981349;28;20529;-70
2022/04/24 02:44:53;;;;;;;2.17;1.30;;;11.60;95.10;;;;;;4979955;28;20714;-70
2022/04/24 02:47:20;;;;;;;2.07;1.47;;;11.70;95.00;;;;;;4985853;28;20220;-70
2022/04/24 02:49:47;;;;;;;2.33;1.50;;;11.70;94.90;;;;;;4978405;28;20267;-69
2022/04/24 02:52:14;;;;;;;5.57;1.60;;;11.60;94.80;;;;;;4977805;28;20311;-69
2022/04/24 02:54:42;;;;;;;3.30;1.37;;;11.60;94.80;;;;;;4979697;28;20245;-69
2022/04/24 02:57:09;;;;;;;2.57;1.63;;;11.50;94.90;;;;;;4979540;28;20204;-69
2022/04/24 02:59:36;;;;;;;1.40;1.30;;;11.50;95.10;;;;;;4962059;28;20223;-69
2022/04/24 03:02:04;;;;;;;2.73;1.27;;;11.50;95.10;;;;;;4977831;28;20294;-69
2022/04/24 03:04:31;;;;;;;1.77;1.40;;;11.50;95.10;;;;;;4978028;28;20290;-69
2022/04/24 03:06:58;;;;;;;5.40;1.30;;;11.40;95.10;;;;;;4978883;28;20645;-69
2022/04/24 03:09:25;;;;;;;2.50;1.20;;;11.50;95.10;;;;;;4979797;28;20290;-70
2022/04/24 03:11:52;;;;;;;3.70;1.30;;;11.50;95.10;;;;;;4980770;28;20321;-69
2022/04/24 03:14:20;;;;;;;2.47;1.13;;;11.50;94.90;;;;;;4981070;28;20313;-69
2022/04/24 03:16:47;;;;;;;4.73;1.50;;;11.50;94.80;;;;;;4987953;28;20505;-69
2022/04/24 03:19:14;;;;;;;2.60;1.33;;;11.50;94.60;;;;;;4998766;28;20281;-69
2022/04/24 03:21:41;;;;;;;1.40;1.30;;;11.50;94.40;;;;;;4973304;28;20308;-69
2022/04/24 03:24:08;;;;;;;2.67;1.20;;;11.50;94.50;;;;;;4987737;28;20287;-69
2022/04/24 03:26:35;;;;;;;3.97;1.07;;;11.40;94.50;;;;;;4985645;28;20713;-69
2022/04/24 03:29:02;;;;;;;1.57;1.10;;;11.40;94.90;;;;;;4986469;28;20269;-69
2022/04/24 03:31:29;;;;;;;2.97;1.30;;;11.40;94.90;;;;;;4986222;28;20271;-69
2022/04/24 03:33:58;;;;;;;2.60;1.10;;;11.40;94.30;;;;;;4984696;28;20717;-69
2022/04/24 03:36:26;;;;;;;1.63;1.30;;;11.30;93.80;;;;;;4984138;28;20212;-69
2022/04/24 03:38:53;;;;;;;1.37;1.27;;;11.10;93.80;;;;;;4982452;28;20248;-69
2022/04/24 03:41:20;;;;;;;3.07;1.20;;;11.10;94.20;;;;;;4969506;28;20587;-69
2022/04/24 03:43:47;;;;;;;1.10;1.00;;;11.10;94.50;;;;;;4980962;28;20201;-69
2022/04/24 03:46:15;;;;;;;3.30;1.33;;;11.10;94.60;;;;;;4984144;28;20240;-69
2022/04/24 03:48:42;;;;;;;2.40;1.20;;;11.10;94.70;;;;;;4967946;28;20329;-69
2022/04/24 03:51:10;;;;;;;1.93;1.20;;;11.00;94.70;;;;;;4961087;28;20347;-69
2022/04/24 03:53:37;;;;;;;1.53;1.30;;;11.10;94.80;;;;;;4982723;28;20661;-69
2022/04/24 03:56:04;;;;;;;2.10;1.10;;;11.10;94.90;;;;;;4977020;28;20736;-69
2022/04/24 03:58:31;;;;;;;1.20;1.10;;;11.00;94.90;;;;;;4966914;28;20278;-69
2022/04/24 04:00:59;;;;;;;2.47;1.30;;;11.00;94.90;;;;;;4981680;28;20217;-69
2022/04/24 04:03:26;;;;;;;2.17;1.23;;;11.00;94.80;;;;;;4979463;28;20816;-69
2022/04/24 04:05:53;;;;;;;3.23;1.53;;;10.90;94.70;;;;;;4968771;28;20254;-69
2022/04/24 04:08:21;;;;;;;1.80;1.30;;;10.90;94.60;;;;;;4992536;28;20213;-69
2022/04/24 04:10:48;;;;;;;4.03;1.27;;;10.80;94.60;;;;;;4986267;28;20556;-69
2022/04/24 04:13:15;;;;;;;1.93;1.40;;;10.80;94.60;;;;;;4982978;28;20241;-69
2022/04/24 04:15:42;;;;;;;2.70;1.60;;;10.80;94.60;;;;;;4968573;28;20211;-69
2022/04/24 04:18:09;;;;;;;3.10;1.70;;;10.80;94.70;;;;;;4985149;28;20226;-69
2022/04/24 04:20:36;;;;;;;3.20;1.60;;;10.80;94.80;;;;;;4959433;28;20248;-69
2022/04/24 04:23:03;;;;;;;2.07;1.27;;;10.80;94.70;;;;;;4987615;28;20222;-69
2022/04/24 04:25:30;;;;;;;1.60;1.50;;;10.80;94.80;;;;;;4987641;28;20213;-69
2022/04/24 04:27:57;;;;;;;1.90;1.43;;;10.80;94.70;;;;;;4988204;28;20214;-69
2022/04/24 04:30:25;;;;;;;1.70;1.60;;;10.80;94.70;;;;;;4984813;28;20587;-69
2022/04/24 04:32:52;;;;;;;3.00;1.77;;;10.80;94.80;;;;;;4986371;28;20607;-69
2022/04/24 04:35:22;;;;;;;2.07;1.70;;;10.90;94.90;;;;;;4991329;28;20223;-69
2022/04/24 04:37:50;;;;;;;3.27;1.60;;;10.90;94.80;;;;;;4972782;28;20240;-69
2022/04/24 04:40:23;;;;;;;1.70;1.60;;;10.90;94.90;;;;;;4965632;28;20224;-69
2022/04/24 04:42:50;;;;;;;1.87;1.60;;;11.00;94.90;;;;;;4969837;28;20230;-69
2022/04/24 04:45:17;;;;;;;1.80;1.70;;;11.00;94.70;;;;;;4976192;28;20207;-69
2022/04/24 04:47:47;;;;;;;2.77;1.60;;;11.10;94.90;;;;;;4990525;28;20202;-69
2022/04/24 04:50:14;;;;;;;2.07;1.60;;;11.10;95.00;;;;;;4993721;28;20235;-69
2022/04/24 04:52:41;;;;;;;3.10;1.90;;;11.20;95.00;;;;;;4975680;28;20240;-69
2022/04/24 04:55:09;;;;;;;2.27;1.73;;;11.30;95.00;;;;;;4989016;28;20214;-68
2022/04/24 04:57:36;;;;;;;3.47;1.73;;;11.30;95.10;;;;;;4988908;28;20294;-68
2022/04/24 05:00:07;;;;;;;3.33;1.80;;;11.40;95.10;;;;;;4972262;28;20294;-69
2022/04/24 05:02:40;;;;;;;4.67;2.00;;;11.50;95.10;;;;;;4981051;28;20293;-69
2022/04/24 05:05:09;;;;;;;2.20;1.80;;;11.60;94.90;;;;;;4983458;28;20207;-69
2022/04/24 05:07:37;;;;;;;3.77;1.73;;;11.60;94.80;;;;;;4967504;28;20257;-69
2022/04/24 05:10:05;;;;;;;3.20;1.80;;;11.70;94.90;;;;;;4983297;28;20209;-69
2022/04/24 05:12:32;;;;;;;2.57;1.87;;;11.90;95.10;;;;;;4983829;28;20252;-69
2022/04/24 05:15:01;;;;;;;3.87;1.47;;;12.00;95.00;;;;;;4984684;28;20239;-69
2022/04/24 05:17:28;;;;;;;2.30;1.57;;;12.10;95.00;;;;;;4983936;28;20255;-69
2022/04/24 05:19:55;;;;;;;3.83;1.60;;;12.30;94.90;;;;;;4989656;28;20211;-69
2022/04/24 05:22:23;;;;;;;2.47;1.97;;;12.50;94.70;;;;;;4988174;28;20535;-69
2022/04/24 05:24:50;;;;;;;1.67;1.57;;;12.60;94.40;;;;;;4987829;28;20220;-69
2022/04/24 05:27:19;;;;;;;1.37;1.20;;;12.90;94.20;;;;;;4990217;28;20635;-69
2022/04/24 05:29:46;;;;;;;2.27;1.27;;;13.20;94.00;;;;;;4990133;28;20287;-69
2022/04/24 05:32:15;;;;;;;1.87;1.30;;;13.50;93.00;;;;;;4991860;28;20641;-69
2022/04/24 05:34:42;;;;;;;3.13;1.67;;;13.60;92.60;;;;;;4962566;28;20230;-69
2022/04/24 05:37:09;;;;;;;4.70;1.03;;;13.60;92.70;;;;;;4974500;28;20210;-69
2022/04/24 05:39:37;;;;;;;3.33;1.73;;;13.70;92.70;;;;;;4975067;28;20201;-69
2022/04/24 05:42:05;;;;;;;16.03;10.60;;;13.70;92.70;;;;;;4985508;28;20284;-69
2022/04/24 05:44:32;;;;;;;56.53;49.03;;;13.80;92.90;;;;;;4955737;28;20486;-70
2022/04/24 05:47:00;;;;;;;504.90;238.23;;;13.90;93.00;;;;;;4990138;28;20271;-70
2022/04/24 05:49:27;;;;;;;414.87;287.73;;;14.00;92.50;;;;;;4985534;28;20298;-70
2022/04/24 05:51:54;;;;;;;77.00;47.80;;;14.00;91.10;;;;;;4990633;28;20248;-70
2022/04/24 05:54:21;;;;;;;1267.03;784.77;;;13.90;91.40;;;;;;4988431;28;20211;-70
2022/04/24 05:56:49;;;;;;;439.57;317.53;;;13.90;91.60;;;;;;4981991;28;20208;-69
2022/04/24 05:59:16;;;;;;;368.47;246.03;;;13.80;91.20;;;;;;4981754;28;20203;-70
2022/04/24 06:01:43;;;;;;;414.47;203.70;;;13.80;91.10;;;;;;4967854;28;20597;-70
2022/04/24 06:04:11;;;;;;;109.27;62.50;;;13.70;91.40;;;;;;4976346;28;20247;-70
2022/04/24 06:06:38;;;;;;;107.70;52.97;;;13.60;91.50;;;;;;4987066;28;20226;-70
2022/04/24 06:09:06;;;;;;;35.57;17.77;;;13.50;91.70;;;;;;4980681;28;20222;-70
2022/04/24 06:11:33;;;;;;;1566.20;509.27;;;13.50;92.00;;;;;;4987583;28;20301;-70
2022/04/24 06:14:00;;;;;;;6.90;4.93;;;13.50;92.20;;;;;;4983251;28;20320;-70
2022/04/24 06:16:27;;;;;;;5.57;4.97;;;13.60;92.30;;;;;;4983897;28;20274;-70
2022/04/24 06:18:54;;;;;;;15.60;7.10;;;13.60;92.20;;;;;;4981875;28;20201;-70
2022/04/24 06:21:22;;;;;;;6.10;5.57;;;13.60;92.20;;;;;;4959347;28;20582;-70
2022/04/24 06:23:49;;;;;;;8.03;5.57;;;13.60;92.40;;;;;;4990677;28;20656;-69
2022/04/24 06:26:16;;;;;;;6.23;5.63;;;13.70;92.10;;;;;;4991734;28;20695;-69
2022/04/24 06:28:43;;;;;;;8.03;4.63;;;13.70;92.60;;;;;;4980513;28;20686;-69
2022/04/24 06:31:10;;;;;;;45.40;12.83;;;13.90;92.80;;;;;;4972393;28;20209;-69
2022/04/24 06:33:37;;;;;;;7.00;4.07;;;14.00;92.30;;;;;;4974210;28;20290;-69
2022/04/24 06:36:04;;;;;;;11.43;4.47;;;14.10;92.10;;;;;;4963681;28;20256;-70
2022/04/24 06:38:32;;;;;;;3.50;3.20;;;14.20;92.30;;;;;;4961078;28;20296;-70
2022/04/24 06:40:59;;;;;;;6.60;4.10;;;14.30;92.10;;;;;;4992267;28;20650;-70
2022/04/24 06:43:26;;;;;;;6.13;3.77;;;14.50;92.10;;;;;;4988463;28;20203;-70
2022/04/24 06:45:54;;;;;;;19.37;8.73;;;14.60;91.30;;;;;;4953378;28;20287;-71
2022/04/24 06:48:21;;;;;;;19.07;6.97;;;14.80;91.70;;;;;;4985152;28;20315;-70
2022/04/24 06:50:48;;;;;;;3.83;3.50;;;15.00;91.80;;;;;;4983780;28;20215;-72
2022/04/24 06:53:20;;;;;;;4.17;3.70;;;15.20;91.60;;;;;;4983567;28;20242;-71
2022/04/24 06:55:49;;;;;;;48.37;19.27;;;15.40;91.30;;;;;;4983540;28;20234;-71
2022/04/24 06:58:18;;;;;;;63.60;27.13;;;15.60;90.90;;;;;;4984567;28;20653;-71
2022/04/24 07:00:47;;;;;;;38.03;15.57;;;15.70;90.40;;;;;;4973726;28;20210;-72
2022/04/24 07:03:35;;;;;;;17.67;8.87;;;15.90;90.10;;;;;;4985547;28;20553;-72
2022/04/24 07:06:03;;;;;;;9.87;6.77;;;16.00;89.70;;;;;;4986992;28;20249;-71
2022/04/24 07:08:32;;;;;;;25.30;12.53;;;16.10;89.40;;;;;;4986884;28;20234;-71
2022/04/24 07:10:59;;;;;;;15.40;7.20;;;16.10;87.80;;;;;;4989861;28;20207;-72
2022/04/24 07:13:26;;;;;;;8.03;5.53;;;16.10;88.20;;;;;;4988676;28;20246;-71
2022/04/24 07:15:54;;;;;;;9.93;5.37;;;16.20;89.00;;;;;;4985375;28;20216;-71
2022/04/24 07:18:21;;;;;;;8.17;6.10;;;16.30;89.00;;;;;;4984998;28;20211;-72
2022/04/24 07:20:49;;;;;;;9.37;6.07;;;16.40;88.20;;;;;;4982907;28;20204;-71
2022/04/24 07:23:16;;;;;;;5.07;4.57;;;16.40;87.50;;;;;;4986911;28;20200;-71
2022/04/24 07:25:44;;;;;;;5.47;4.30;;;16.50;86.80;;;;;;4990117;28;20220;-71
2022/04/24 07:28:13;;;;;;;6.37;4.37;;;16.60;85.10;;;;;;4992533;28;21274;-71
2022/04/24 07:30:41;;;;;;;4.30;3.03;;;16.70;85.70;;;;;;4976377;28;20632;-71
2022/04/24 07:33:09;;;;;;;5.43;3.43;;;16.70;84.20;;;;;;4976356;28;20243;-71
2022/04/24 07:35:39;;;;;;;6.57;2.10;;;16.80;82.00;;;;;;4975833;28;20199;-71
2022/04/24 07:38:06;;;;;;;4.43;1.80;;;16.80;81.70;;;;;;4977204;28;20294;-71
2022/04/24 07:40:39;;;;;;;4.80;2.13;;;16.80;78.30;;;;;;4984306;28;20231;-71
2022/04/24 07:43:10;;;;;;;3.63;1.97;;;16.70;79.10;;;;;;4971419;28;20308;-72
2022/04/24 07:45:48;;;;;;;4.67;2.93;;;16.90;81.20;;;;;;4989890;28;20548;-71
2022/04/24 07:48:17;;;;;;;168.77;70.97;;;17.00;79.10;;;;;;4977162;28;20215;-71
2022/04/24 07:50:52;;;;;;;60.40;32.27;;;16.90;77.00;;;;;;4988698;28;20215;-71
2022/04/24 07:53:20;;;;;;;3.33;2.13;;;16.80;72.10;;;;;;4989909;28;20291;-70
2022/04/24 07:55:50;;;;;;;2.53;1.30;;;16.80;76.60;;;;;;4984047;28;20236;-70
2022/04/24 07:58:17;;;;;;;0.67;0.50;;;16.90;72.00;;;;;;4982129;28;20211;-71
2022/04/24 08:00:45;;;;;;;1.37;0.60;;;17.00;75.90;;;;;;4988998;28;20615;-70
2022/04/24 08:03:14;;;;;;;5.13;1.47;;;17.40;77.50;;;;;;4982358;28;20254;-71
2022/04/24 08:05:47;;;;;;;1.13;1.00;;;17.60;71.70;;;;;;4992101;28;20227;-70
2022/04/24 08:08:19;;;;;;;1.23;0.50;;;17.80;71.90;;;;;;4979222;28;20661;-70
2022/04/24 08:10:49;;;;;;;0.80;0.70;;;17.80;72.40;;;;;;4992708;28;20240;-71
2022/04/24 08:13:18;;;;;;;0.57;0.57;;;17.90;70.70;;;;;;4976275;28;20248;-71
2022/04/24 08:15:47;;;;;;;1.40;0.40;;;18.00;66.20;;;;;;4982930;28;20584;-71
2022/04/24 08:18:15;;;;;;;1.40;0.40;;;18.00;68.00;;;;;;4979730;28;20247;-71
2022/04/24 08:20:43;;;;;;;1.90;0.37;;;17.90;71.00;;;;;;4991339;28;20720;-71
2022/04/24 08:23:11;;;;;;;0.20;0.20;;;17.80;72.30;;;;;;4990996;28;20232;-71
2022/04/24 08:25:39;;;;;;;0.63;0.50;;;17.70;72.40;;;;;;4979546;28;20217;-71
2022/04/24 08:28:09;;;;;;;1.07;0.30;;;17.60;72.10;;;;;;4983701;28;20231;-71
2022/04/24 08:30:39;;;;;;;0.50;0.50;;;17.40;72.20;;;;;;4982533;28;20696;-71
2022/04/24 08:33:07;;;;;;;2.90;0.40;;;17.20;72.10;;;;;;4976251;28;20235;-71
2022/04/24 08:35:35;;;;;;;2.47;0.30;;;16.90;73.30;;;;;;4983173;28;20236;-71
2022/04/24 08:38:03;;;;;;;1.30;0.70;;;16.70;74.50;;;;;;4986963;28;20223;-70
2022/04/24 08:40:30;;;;;;;0.70;0.40;;;16.50;75.50;;;;;;4985367;28;20580;-70
2022/04/24 08:42:57;;;;;;;1.33;0.60;;;16.30;76.60;;;;;;4983143;28;20620;-70
2022/04/24 08:45:27;;;;;;;2.13;0.80;;;16.20;76.50;;;;;;4989379;28;20584;-70
2022/04/24 08:47:56;;;;;;;1.23;0.60;;;16.00;77.70;;;;;;4988745;28;20255;-71
2022/04/24 08:50:27;;;;;;;2.00;0.57;;;15.90;77.70;;;;;;4983632;28;20616;-71
2022/04/24 08:52:56;;;;;;;0.43;0.40;;;15.70;78.50;;;;;;4979102;28;20605;-71
2022/04/24 08:55:26;;;;;;;1.43;0.60;;;15.70;79.50;;;;;;4975230;28;20236;-70
2022/04/24 08:57:54;;;;;;;0.50;0.50;;;15.70;80.40;;;;;;4963759;28;20286;-71
2022/04/24 09:00:22;;;;;;;1.93;0.43;;;15.60;80.40;;;;;;4985212;28;20338;-71
2022/04/24 09:02:50;;;;;;;0.83;0.50;;;15.50;81.40;;;;;;4977190;28;20646;-70
2022/04/24 09:05:19;;;;;;;0.40;0.40;;;15.50;81.50;;;;;;4981721;28;20240;-71
2022/04/24 09:07:46;;;;;;;2.50;0.50;;;15.40;82.00;;;;;;4990310;28;20219;-70
2022/04/24 09:10:49;;;;;;;1.93;0.70;;;15.30;82.40;;;;;;4992628;28;20217;-70
2022/04/24 09:13:26;;;;;;;1.73;0.60;;;15.10;82.90;;;;;;4990645;28;20267;-70
2022/04/24 09:15:55;;;;;;;0.60;0.43;;;15.00;83.50;;;;;;4981731;28;20228;-70
2022/04/24 09:18:23;;;;;;;0.90;0.40;;;14.80;84.20;;;;;;4966819;28;20204;-70
2022/04/24 09:20:55;;;;;;;0.80;0.60;;;14.70;85.20;;;;;;4964854;28;20231;-70
2022/04/24 09:23:33;;;;;;;1.67;0.80;;;14.60;85.80;;;;;;4983953;28;20600;-70
2022/04/24 09:26:00;;;;;;;1.57;0.73;;;14.50;85.90;;;;;;4983833;28;20248;-70
2022/04/24 09:28:40;;;;;;;1.33;0.80;;;14.40;86.50;;;;;;4983772;28;20294;-70
2022/04/24 09:31:08;;;;;;;0.87;0.57;;;14.30;87.40;;;;;;4984946;28;20222;-70
2022/04/24 09:33:43;;;;;;;3.83;0.80;;;14.20;88.10;;;;;;4984286;28;20738;-70
2022/04/24 09:36:12;;;;;;;2.20;0.70;;;14.20;88.90;;;;;;4986244;28;20231;-71
2022/04/24 09:38:41;;;;;;;1.23;0.70;;;14.20;89.40;;;;;;4986397;28;20203;-70
2022/04/24 09:41:19;;;;;;;3.03;0.87;;;14.20;90.00;;;;;;4968446;28;20238;-70
2022/04/24 09:43:47;;;;;;;2.13;0.60;;;14.20;90.10;;;;;;4958935;28;20253;-70
2022/04/24 09:46:24;;;;;;;1.57;0.60;;;14.30;90.20;;;;;;4964869;28;20277;-70
2022/04/24 09:48:53;;;;;;;1.93;0.80;;;14.40;90.20;;;;;;4987708;28;20202;-70
2022/04/24 09:51:21;;;;;;;0.50;0.50;;;14.40;90.20;;;;;;4984709;28;20311;-71
2022/04/24 09:53:48;;;;;;;0.60;0.50;;;14.50;90.10;;;;;;4976256;28;20237;-71
2022/04/24 09:56:16;;;;;;;1.90;0.47;;;14.50;90.00;;;;;;4958529;28;20243;-70
2022/04/24 09:58:45;;;;;;;0.50;0.33;;;14.50;89.50;;;;;;4979298;28;20606;-71
2022/04/24 10:01:13;;;;;;;2.20;0.60;;;14.50;89.30;;;;;;4978864;28;20214;-71
2022/04/24 10:03:42;;;;;;;1.70;0.53;;;14.50;89.40;;;;;;4958503;28;20333;-71
2022/04/24 10:06:10;;;;;;;0.50;0.47;;;14.50;89.50;;;;;;4977730;28;20229;-71
2022/04/24 10:08:40;;;;;;;0.50;0.40;;;14.60;89.00;;;;;;4965937;28;20218;-71
2022/04/24 10:11:07;;;;;;;0.83;0.40;;;14.60;88.80;;;;;;4982135;28;20222;-71
2022/04/24 10:13:40;;;;;;;0.33;0.33;;;14.60;88.80;;;;;;4964867;28;20337;-71
2022/04/24 10:16:46;;;;;;;0.60;0.37;;;14.60;88.90;;;;;;4981572;28;20219;-71
2022/04/24 10:19:54;;;;;;;0.63;0.40;;;14.60;88.80;;;;;;4985172;28;20228;-71
2022/04/24 10:22:44;;;;;;;1.00;0.70;;;14.70;88.10;;;;;;4981902;28;20300;-70
2022/04/24 10:25:13;;;;;;;1.47;0.50;;;14.70;88.40;;;;;;4967672;28;20229;-70
2022/04/24 10:27:40;;;;;;;1.97;0.40;;;14.70;88.30;;;;;;4983146;28;20211;-70
2022/04/24 10:30:11;;;;;;;2.13;1.33;;;14.70;88.40;;;;;;4985052;28;20216;-70
2022/04/24 10:32:39;;;;;;;1.47;0.70;;;14.70;88.80;;;;;;4985749;28;20675;-70
2022/04/24 10:35:16;;;;;;;0.70;0.50;;;14.80;89.10;;;;;;4988040;28;20264;-70
2022/04/24 10:37:43;;;;;;;0.40;0.40;;;14.80;88.70;;;;;;4971435;28;20265;-70
2022/04/24 10:40:17;;;;;;;0.70;0.70;;;14.70;88.20;;;;;;4972667;28;20208;-70
2022/04/24 10:42:44;;;;;;;0.70;0.70;;;14.70;88.40;;;;;;4965506;28;20310;-70
2022/04/24 10:45:14;;;;;;;0.50;0.40;;;14.70;88.70;;;;;;4984215;28;20214;-70
2022/04/24 10:47:50;;;;;;;1.27;0.70;;;14.60;89.00;;;;;;4974857;28;20211;-71
2022/04/24 10:50:18;;;;;;;1.63;0.90;;;14.60;89.30;;;;;;4975449;28;20289;-71
2022/04/24 10:52:48;;;;;;;0.50;0.50;;;14.50;89.20;;;;;;4982731;28;20664;-71
2022/04/24 10:55:17;;;;;;;2.03;0.60;;;14.40;89.30;;;;;;4974529;28;20546;-71
2022/04/24 10:57:47;;;;;;;1.17;0.50;;;14.40;89.60;;;;;;4987513;28;20238;-71
2022/04/24 11:00:26;;;;;;;1.90;0.70;;;14.40;89.90;;;;;;4968268;28;20635;-71
2022/04/24 11:03:11;;;;;;;0.60;0.60;;;14.40;89.80;;;;;;4961403;28;20246;-71
2022/04/24 11:05:45;;;;;;;0.60;0.60;;;14.50;89.00;;;;;;4981383;28;20283;-71
2022/04/24 11:08:18;;;;;;;0.73;0.60;;;14.70;89.00;;;;;;4978766;28;20627;-71
2022/04/24 11:10:47;;;;;;;2.20;0.70;;;14.90;88.80;;;;;;4971729;28;20229;-70
2022/04/24 11:13:21;;;;;;;0.63;0.50;;;15.00;89.10;;;;;;4983087;28;20251;-70
2022/04/24 11:15:50;;;;;;;2.20;0.50;;;15.20;89.40;;;;;;4989063;28;20314;-71
2022/04/24 11:18:21;;;;;;;0.47;0.47;;;15.50;89.40;;;;;;4986530;28;20208;-70
2022/04/24 11:21:05;;;;;;;0.80;0.37;;;15.80;89.00;;;;;;4988826;28;20271;-70
2022/04/24 11:23:35;;;;;;;0.87;0.70;;;16.20;86.00;;;;;;4989213;28;20319;-70
2022/04/24 11:26:06;;;;;;;2.67;0.70;;;16.60;85.20;;;;;;4983060;28;20243;-70
2022/04/24 11:28:38;;;;;;;0.60;0.30;;;16.90;83.90;;;;;;4982237;28;20276;-70
2022/04/24 11:31:11;;;;;;;0.30;0.30;;;17.20;83.40;;;;;;4991952;28;20235;-70
2022/04/24 11:34:00;;;;;;;0.40;0.40;;;17.60;80.70;;;;;;4975676;28;20279;-70
2022/04/24 11:36:33;;;;;;;0.40;0.40;;;17.90;79.30;;;;;;4960385;28;20223;-70
2022/04/24 11:39:03;;;;;;;1.00;0.40;;;18.20;77.50;;;;;;4984864;28;20293;-70
2022/04/24 11:41:31;;;;;;;0.30;0.30;;;18.40;73.60;;;;;;4990659;28;20201;-70
2022/04/24 11:50:13;;;;;;;0.30;0.30;;;18.90;73.60;;;;;;4993084;28;20292;-70
2022/04/24 11:53:00;;;;;;;0.40;0.40;;;19.10;72.40;;;;;;4987220;28;20559;-70
2022/04/24 11:56:01;;;;;;;0.40;0.40;;;19.20;69.30;;;;;;4979855;28;20289;-70
2022/04/24 11:58:16;;;;;;;0.20;0.20;;;19.20;70.30;;;;;;4982186;28;20206;-70
2022/04/24 12:00:45;;;;;;;0.73;0.43;;;19.40;70.50;;;;;;4987256;28;20203;-70
2022/04/24 12:03:14;;;;;;;0.30;0.30;;;19.60;67.60;;;;;;4988751;28;20305;-70
2022/04/24 12:05:43;;;;;;;0.43;0.40;;;19.70;68.80;;;;;;4987295;28;20557;-70
2022/04/24 12:08:12;;;;;;;0.33;0.33;;;19.90;68.50;;;;;;4986503;28;20285;-70
2022/04/24 12:10:46;;;;;;;1.70;0.60;;;19.90;65.90;;;;;;4985396;28;20652;-70
2022/04/24 12:13:21;;;;;;;0.50;0.40;;;19.90;66.40;;;;;;4986380;28;20242;-71
2022/04/24 12:15:52;;;;;;;0.70;0.70;;;19.90;66.90;;;;;;4993194;28;20226;-70
2022/04/24 12:18:24;;;;;;;2.10;0.30;;;20.00;66.90;;;;;;4984874;28;20275;-70
2022/04/24 12:20:52;;;;;;;0.80;0.30;;;20.00;66.70;;;;;;4968332;28;20286;-70
2022/04/24 12:23:21;;;;;;;0.30;0.30;;;20.10;66.80;;;;;;4982440;28;20220;-71
2022/04/24 12:25:56;;;;;;;0.73;0.43;;;20.10;66.10;;;;;;4974004;28;20684;-71
2022/04/24 12:28:35;;;;;;;0.57;0.37;;;20.00;64.60;;;;;;4974118;28;20279;-70
2022/04/24 12:31:04;;;;;;;1.07;0.50;;;19.90;64.40;;;;;;4979387;28;20219;-70
2022/04/24 12:33:32;;;;;;;2.23;0.70;;;19.90;65.00;;;;;;4975886;28;20321;-70
2022/04/24 12:36:13;;;;;;;0.30;0.30;;;19.80;66.00;;;;;;4990156;28;20264;-70
2022/04/24 12:39:06;;;;;;;0.40;0.40;;;19.60;66.80;;;;;;4976621;28;20243;-70
2022/04/24 12:41:37;;;;;;;0.53;0.40;;;19.40;66.70;;;;;;4990449;28;20316;-70
2022/04/24 12:44:06;;;;;;;0.87;0.50;;;19.30;67.30;;;;;;4991805;28;20700;-70
2022/04/24 12:46:34;;;;;;;0.83;0.47;;;19.20;67.60;;;;;;4980072;28;20214;-70
2022/04/24 12:49:03;;;;;;;0.53;0.40;;;19.20;65.30;;;;;;4981953;28;20213;-70
2022/04/24 12:51:31;;;;;;;0.93;0.43;;;19.20;66.40;;;;;;4977966;28;20212;-70
2022/04/24 12:54:00;;;;;;;1.23;0.40;;;19.30;66.60;;;;;;4986476;28;20292;-70
2022/04/24 12:56:29;;;;;;;0.50;0.30;;;19.30;66.00;;;;;;4966261;28;20215;-70
2022/04/24 12:58:58;;;;;;;0.70;0.60;;;19.40;67.00;;;;;;4985204;28;20209;-70
2022/04/24 13:01:25;;;;;;;2.50;0.60;;;19.50;67.30;;;;;;4984426;28;20205;-70
2022/04/24 13:03:54;;;;;;;0.50;0.40;;;19.50;67.00;;;;;;4986026;28;20220;-70
2022/04/24 13:06:28;;;;;;;0.50;0.40;;;19.50;66.90;;;;;;4985700;28;20218;-70
2022/04/24 13:08:55;;;;;;;1.20;0.40;;;19.60;67.80;;;;;;4981611;28;20237;-70